Time;durP1;ratioP1;P1;durP2;ratioP2;P2;SDS_P1;SDS_P2;PMS_P1;PMS_P2;Temp;Humidity;BMP_temperature;BMP_pressure;BME280_temperature;BME280_humidity;BME280_pressure;Samples;Min_cycle;Max_cycle;Signal;HPM_P1;HPM_P2
2022/12/10 00:03:34;;;;;;;70.22;42.33;;;;;;;3.56;97.23;99287.61;2818358;82;20983;-90
2022/12/10 00:07:36;;;;;;;62.45;37.88;;;;;;;3.56;97.38;99287.16;2812872;83;21106;-91
2022/12/10 00:11:38;;;;;;;70.37;42.62;;;;;;;3.53;97.22;99282.08;2808410;82;21623;-90
2022/12/10 00:15:39;;;;;;;79.85;42.67;;;;;;;3.50;97.63;99284.92;2824441;82;21066;-89
2022/12/10 00:19:40;;;;;;;67.55;37.30;;;;;;;3.47;97.50;99277.25;2805962;82;21118;-91
2022/12/10 00:23:42;;;;;;;63.80;41.70;;;;;;;3.48;97.83;99278.94;2812887;82;21059;-87
2022/12/10 00:27:43;;;;;;;68.90;39.05;;;;;;;3.47;98.22;99272.48;2797085;83;21043;-92
2022/12/10 00:31:45;;;;;;;64.85;42.40;;;;;;;3.43;98.03;99266.59;2797675;84;21024;-89
2022/12/10 00:35:46;;;;;;;68.72;41.40;;;;;;;3.42;98.15;99268.84;2819240;84;21047;-90
2022/12/10 00:39:47;;;;;;;74.92;43.28;;;;;;;3.39;98.24;99273.01;2840027;83;21039;-91
2022/12/10 00:43:48;;;;;;;66.87;42.58;;;;;;;3.39;98.31;99284.34;2798190;83;21579;-92
2022/12/10 00:47:50;;;;;;;70.92;43.95;;;;;;;3.32;97.96;99283.09;2817749;84;21027;-88
2022/12/10 00:51:51;;;;;;;66.47;41.83;;;;;;;3.33;98.77;99281.29;2817445;84;21066;-90
2022/12/10 00:55:53;;;;;;;74.20;42.98;;;;;;;3.29;98.36;99284.13;2841529;82;21048;-90
2022/12/10 00:59:54;;;;;;;65.08;40.43;;;;;;;3.26;98.45;99289.60;2810968;82;21022;-91
2022/12/10 01:04:00;;;;;;;70.92;40.73;;;;;;;3.21;98.59;99287.77;2859998;81;21061;-87
2022/12/10 01:08:02;;;;;;;67.53;42.58;;;;;;;3.20;98.31;99290.02;2816372;82;21119;-91
2022/12/10 01:12:04;;;;;;;64.82;38.08;;;;;;;3.12;98.94;99288.36;2844818;82;21026;-91
2022/12/10 01:16:08;;;;;;;71.57;41.53;;;;;;;3.08;98.91;99285.58;2848279;82;21045;-90
2022/12/10 01:20:10;;;;;;;70.40;44.75;;;;;;;3.06;99.48;99284.84;2822558;84;21059;-90
2022/12/10 01:24:11;;;;;;;81.92;45.33;;;;;;;3.04;99.97;99286.73;2829294;83;21927;-92
2022/12/10 01:28:12;;;;;;;65.37;38.80;;;;;;;3.04;99.85;99290.67;2799889;83;21039;-92
2022/12/10 01:32:14;;;;;;;79.22;43.73;;;;;;;2.99;99.93;99287.89;2826347;82;21028;-91
2022/12/10 01:36:23;;;;;;;62.17;39.75;;;;;;;2.95;100.00;99295.61;2749168;83;21385;-90
2022/12/10 01:40:25;;;;;;;69.37;38.73;;;;;;;3.03;100.00;99298.19;2842457;83;21067;-87
2022/12/10 01:44:31;;;;;;;66.37;37.98;;;;;;;3.02;99.85;99301.27;2820300;82;21435;-90
2022/12/10 01:48:33;;;;;;;71.10;38.63;;;;;;;2.95;99.99;99306.12;2829226;82;21365;-93
2022/12/10 01:52:35;;;;;;;62.85;41.45;;;;;;;2.97;100.00;99305.55;2799524;82;21070;-91
2022/12/10 01:56:41;;;;;;;69.27;40.40;;;;;;;2.99;100.00;99307.59;2827784;83;21044;-90
2022/12/10 02:00:50;;;;;;;77.70;37.42;;;;;;;2.99;99.94;99308.91;2825214;84;21043;-91
2022/12/10 02:05:09;;;;;;;66.10;39.38;;;;;;;2.96;100.00;99297.75;2865082;82;21616;-88
2022/12/10 02:10:03;;;;;;;66.22;39.75;;;;;;;2.98;99.91;99295.40;2819883;82;21090;-90
2022/12/10 02:14:16;;;;;;;74.70;37.73;;;;;;;2.99;100.00;99289.66;2857009;82;21006;-92
2022/12/10 02:18:41;;;;;;;66.57;36.58;;;;;;;2.96;99.92;99288.55;2834166;82;21577;-92
2022/12/10 02:23:00;;;;;;;62.58;36.45;;;;;;;2.94;99.67;99293.89;2771790;84;21633;-89
2022/12/10 02:27:30;;;;;;;63.58;37.17;;;;;;;2.94;99.83;99299.15;2808383;82;21043;-89
2022/12/10 02:31:32;;;;;;;60.17;33.90;;;;;;;3.02;99.65;99299.13;2830752;82;21649;-90
2022/12/10 02:35:38;;;;;;;69.97;37.38;;;;;;;3.00;99.10;99301.39;2839621;82;21656;-88
2022/12/10 02:39:44;;;;;;;69.37;39.75;;;;;;;3.03;98.82;99302.13;2847064;82;21007;-88
2022/12/10 02:43:49;;;;;;;56.92;32.30;;;;;;;3.02;99.01;99305.21;2831503;82;21035;-89
2022/12/10 02:47:54;;;;;;;51.18;33.98;;;;;;;3.07;98.94;99304.92;2816505;82;21035;-90
2022/12/10 02:51:56;;;;;;;58.05;34.03;;;;;;;3.09;98.55;99305.66;2785587;84;21062;-89
2022/12/10 02:56:18;;;;;;;56.33;34.55;;;;;;;3.11;98.36;99312.50;2834368;83;21093;-91
2022/12/10 03:00:24;;;;;;;55.35;33.50;;;;;;;3.16;97.92;99312.20;2813730;83;21594;-89
2022/12/10 03:04:38;;;;;;;;;;;;;;;3.20;97.60;99312.36;2839721;82;21192;-89
2022/12/10 03:09:05;;;;;;;61.42;31.27;;;;;;;3.19;97.53;99316.39;2831964;82;20274;-91
2022/12/10 03:13:10;;;;;;;54.13;33.65;;;;;;;3.24;96.96;99309.03;2864750;82;21074;-90
2022/12/10 03:17:13;;;;;;;63.28;37.73;;;;;;;3.24;97.00;99318.23;2855059;82;21634;-89
2022/12/10 03:21:16;;;;;;;51.63;34.50;;;;;;;3.27;97.91;99311.48;2860601;82;21684;-90
2022/12/10 03:25:23;;;;;;;61.10;35.95;;;;;;;3.27;97.91;99312.31;2857463;81;21079;-89
2022/12/10 03:29:35;;;;;;;54.00;33.58;;;;;;;3.27;97.88;99316.25;2848719;82;21122;-92
2022/12/10 03:33:37;;;;;;;65.85;38.28;;;;;;;3.28;97.42;99315.30;2867054;81;21609;-91
2022/12/10 03:37:38;;;;;;;54.80;32.98;;;;;;;3.27;97.63;99322.00;2862077;81;21085;-91
2022/12/10 03:41:39;;;;;;;45.80;33.33;;;;;;;3.25;98.14;99322.09;2881503;81;21010;-90
2022/12/10 03:45:41;;;;;;;47.98;32.73;;;;;;;3.23;97.81;99313.47;2860835;81;21550;-88
2022/12/10 03:49:43;;;;;;;55.95;35.50;;;;;;;3.25;97.70;99321.27;2878751;81;21308;-90
2022/12/10 03:53:45;;;;;;;61.42;34.83;;;;;;;3.29;97.95;99322.25;2858812;81;21110;-88
2022/12/10 03:57:46;;;;;;;62.73;37.33;;;;;;;3.33;97.46;99322.03;2854414;81;21031;-90
2022/12/10 04:01:47;;;;;;;54.13;34.18;;;;;;;3.39;97.12;99321.16;2854645;82;21570;-89
2022/12/10 04:05:48;;;;;;;54.95;31.37;;;;;;;3.35;96.74;99321.00;2855490;81;21086;-88
2022/12/10 04:09:49;;;;;;;49.58;32.98;;;;;;;3.38;96.35;99324.73;2874045;81;21051;-89
2022/12/10 04:18:10;;;;;;;59.80;34.35;;;;;;;3.49;96.04;99338.47;2862259;81;21063;-88
2022/12/10 04:30:51;;;;;;;56.98;33.60;;;;;;;3.54;95.37;99333.76;2786853;83;21079;-91
2022/12/10 04:34:52;;;;;;;49.53;33.85;;;;;;;3.57;95.71;99338.80;2794171;84;21059;-90
2022/12/10 04:38:53;;;;;;;53.78;30.92;;;;;;;3.58;95.61;99335.69;2805890;84;21637;-91
2022/12/10 04:42:55;;;;;;;51.77;33.15;;;;;;;3.56;95.94;99345.47;2806353;84;21031;-91
2022/12/10 04:46:57;;;;;;;52.20;33.48;;;;;;;3.59;95.75;99337.86;2864159;82;21516;-90
2022/12/10 04:50:58;;;;;;;47.45;31.75;;;;;;;3.55;95.26;99331.50;2863809;82;21019;-91
2022/12/10 04:54:59;;;;;;;55.45;33.63;;;;;;;3.59;95.34;99337.86;2874097;82;21087;-91
2022/12/10 04:59:01;;;;;;;51.35;31.37;;;;;;;3.56;95.41;99332.32;2779887;84;21578;-89
2022/12/10 05:03:02;;;;;;;53.70;32.85;;;;;;;3.49;95.47;99340.27;2824079;81;21007;-88
2022/12/10 05:07:04;;;;;;;52.65;33.73;;;;;;;3.52;95.28;99342.69;2876160;81;21086;-89
2022/12/10 05:11:10;;;;;;;51.55;31.17;;;;;;;3.56;95.15;99341.06;2796330;81;21074;-88
2022/12/10 05:15:11;;;;;;;57.08;38.30;;;;;;;3.54;95.23;99346.91;2872924;82;21680;-90
2022/12/10 05:19:12;;;;;;;60.90;36.73;;;;;;;3.60;95.20;99353.52;2851730;82;21015;-92
2022/12/10 05:23:29;;;;;;;60.28;37.48;;;;;;;3.65;95.48;99359.78;2858184;82;21517;-91
2022/12/10 05:27:33;;;;;;;65.25;38.23;;;;;;;3.69;94.90;99366.52;2860774;81;21015;-89
2022/12/10 05:31:34;;;;;;;62.60;35.33;;;;;;;3.66;94.65;99366.27;2861967;81;21078;-91
2022/12/10 05:35:36;;;;;;;62.53;35.00;;;;;;;3.67;94.75;99361.84;2858524;81;21058;-90
2022/12/10 05:39:37;;;;;;;54.98;36.63;;;;;;;3.63;94.83;99366.94;2885282;81;20999;-90
2022/12/10 05:43:38;;;;;;;67.58;42.78;;;;;;;3.64;94.71;99364.67;2859484;82;21590;-91
2022/12/10 05:47:39;;;;;;;59.63;36.10;;;;;;;3.59;94.91;99360.21;2862896;82;21046;-90
2022/12/10 05:51:41;;;;;;;60.73;38.78;;;;;;;3.49;95.52;99360.81;2856858;83;21006;-90
2022/12/10 05:55:42;;;;;;;68.97;43.63;;;;;;;3.41;96.15;99357.38;2857547;81;21089;-90
2022/12/10 05:59:43;;;;;;;73.70;41.65;;;;;;;3.36;96.46;99352.91;2882669;81;21070;-89
2022/12/10 06:03:44;;;;;;;67.40;41.25;;;;;;;3.29;97.20;99346.39;2875250;81;21062;-91
2022/12/10 06:07:46;;;;;;;74.90;45.80;;;;;;;3.23;97.63;99346.32;2853101;82;21094;-91
2022/12/10 06:11:47;;;;;;;80.10;44.25;;;;;;;3.22;98.05;99348.58;2770201;84;21495;-91
2022/12/10 06:15:48;;;;;;;60.48;37.90;;;;;;;3.19;98.31;99347.47;2795397;82;21047;-91
2022/12/10 06:19:50;;;;;;;73.42;38.95;;;;;;;3.20;98.78;99344.36;2830719;82;21688;-89
2022/12/10 06:23:52;;;;;;;64.85;39.18;;;;;;;3.18;98.64;99348.42;2824465;83;21340;-90
2022/12/10 06:27:53;;;;;;;59.55;34.65;;;;;;;3.21;98.66;99357.41;2816100;82;21050;-91
2022/12/10 06:31:54;;;;;;;68.97;38.63;;;;;;;3.19;98.02;99361.93;2831864;83;21125;-92
2022/12/10 06:35:56;;;;;;;63.08;38.63;;;;;;;3.20;97.96;99368.87;2790609;84;21074;-90
2022/12/10 06:39:57;;;;;;;77.95;37.83;;;;;;;3.23;97.68;99379.17;2806120;82;21033;-91
2022/12/10 06:43:58;;;;;;;67.55;37.83;;;;;;;3.25;97.14;99375.97;2808856;82;21060;-91
2022/12/10 06:47:59;;;;;;;66.72;37.33;;;;;;;3.25;96.54;99374.66;2829507;82;21519;-90
2022/12/10 06:52:01;;;;;;;64.55;37.58;;;;;;;3.21;95.69;99378.44;2798113;82;21046;-91
2022/12/10 06:56:04;;;;;;;58.50;34.50;;;;;;;3.21;96.01;99376.27;2814617;84;21636;-92
2022/12/10 07:00:06;;;;;;;54.03;33.60;;;;;;;3.18;94.99;99376.02;2818475;84;21070;-93
2022/12/10 07:04:19;;;;;;;54.15;30.80;;;;;;;3.19;94.40;99385.59;2820206;84;21067;-90
2022/12/10 07:08:14;;;;;;;53.83;32.85;;;;;;;3.15;94.19;99385.42;2790961;83;21091;-90
2022/12/10 07:12:15;;;;;;;53.40;34.25;;;;;;;3.14;94.67;99384.56;2794020;82;20999;-91
2022/12/10 07:16:23;;;;;;;60.30;31.60;;;;;;;3.12;93.42;99385.59;2857274;82;21089;-92
2022/12/10 07:20:24;;;;;;;57.50;31.95;;;;;;;3.12;93.64;99384.28;2852743;82;21102;-90
2022/12/10 07:24:25;;;;;;;52.43;33.78;;;;;;;3.12;93.36;99394.80;2815543;82;21015;-90
2022/12/10 07:28:26;;;;;;;58.33;35.30;;;;;;;3.17;93.58;99387.48;2860485;81;21524;-90
2022/12/10 07:32:28;;;;;;;55.88;31.65;;;;;;;3.18;92.90;99394.41;2866091;81;21125;-89
2022/12/10 07:36:30;;;;;;;54.15;30.88;;;;;;;3.18;93.23;99390.47;2863486;81;21066;-89
2022/12/10 07:40:31;;;;;;;36.28;24.35;;;;;;;3.20;92.64;99393.84;2848111;83;21376;-89
2022/12/10 07:44:32;;;;;;;40.30;28.45;;;;;;;3.17;92.17;99387.93;2865120;82;21050;-88
2022/12/10 07:48:35;;;;;;;49.35;29.75;;;;;;;3.19;92.30;99397.87;2837819;82;21035;-86
2022/12/10 07:52:36;;;;;;;39.80;27.58;;;;;;;3.17;91.85;99399.76;2694417;85;21091;-88
2022/12/10 07:56:37;;;;;;;40.25;25.65;;;;;;;3.20;92.09;99401.72;2856099;81;21470;-87
2022/12/10 08:00:38;;;;;;;39.10;27.50;;;;;;;3.20;91.81;99413.55;2866689;81;21050;-88
2022/12/10 08:04:40;;;;;;;42.48;26.42;;;;;;;3.22;91.32;99409.48;2836500;81;21050;-87
2022/12/10 08:08:42;;;;;;;47.13;27.42;;;;;;;3.17;90.54;99413.75;2867259;81;21079;-88
2022/12/10 08:12:44;;;;;;;43.50;24.27;;;;;;;3.18;91.54;99419.84;2855945;80;21038;-88
2022/12/10 08:16:45;;;;;;;36.30;25.12;;;;;;;3.13;91.18;99418.36;2848309;82;21035;-88
2022/12/10 08:20:46;;;;;;;42.70;25.08;;;;;;;3.17;91.45;99412.90;2852216;81;21003;-89
2022/12/10 08:24:48;;;;;;;36.42;26.48;;;;;;;3.21;91.15;99417.00;2855266;81;21802;-90
2022/12/10 08:28:49;;;;;;;37.28;24.75;;;;;;;3.17;90.76;99417.70;2851306;82;21046;-89
2022/12/10 08:32:50;;;;;;;49.50;32.42;;;;;;;3.16;90.74;99413.39;2850879;81;21081;-90
2022/12/10 08:36:52;;;;;;;45.75;27.75;;;;;;;3.19;91.32;99418.44;2852318;82;20998;-91
2022/12/10 08:40:53;;;;;;;39.92;25.60;;;;;;;3.18;90.54;99414.58;2859810;81;21058;-89
2022/12/10 08:44:54;;;;;;;53.20;30.23;;;;;;;3.16;90.68;99413.39;2886328;81;21065;-90
2022/12/10 08:48:56;;;;;;;39.73;25.88;;;;;;;3.17;90.25;99414.22;2884018;81;21010;-89
2022/12/10 08:52:57;;;;;;;43.92;28.98;;;;;;;3.12;90.37;99415.81;2883939;81;21062;-90
2022/12/10 08:56:58;;;;;;;41.92;28.12;;;;;;;3.10;90.60;99422.96;2891235;81;21462;-89
2022/12/10 09:01:01;;;;;;;48.20;29.37;;;;;;;3.12;91.14;99422.39;2880995;81;21593;-86
2022/12/10 09:05:02;;;;;;;50.23;29.27;;;;;;;3.14;90.78;99431.01;2836364;81;20995;-88
2022/12/10 09:09:04;;;;;;;40.40;27.98;;;;;;;3.16;90.89;99433.09;2887483;81;21577;-89
2022/12/10 09:13:06;;;;;;;37.67;25.50;;;;;;;3.20;90.90;99430.63;2819425;81;21030;-87
2022/12/10 09:17:08;;;;;;;46.18;29.52;;;;;;;3.25;90.81;99441.69;2888131;81;21616;-87
2022/12/10 09:21:13;;;;;;;46.10;26.75;;;;;;;3.25;90.62;99442.17;2884729;81;21601;-88
2022/12/10 09:25:20;;;;;;;47.08;30.15;;;;;;;3.32;91.10;99442.59;2879922;81;21088;-88
2022/12/10 09:29:21;;;;;;;48.63;30.60;;;;;;;3.35;90.21;99446.36;2893333;81;21046;-89
2022/12/10 09:33:30;;;;;;;46.35;28.32;;;;;;;3.40;90.53;99448.20;2804115;81;21010;-88
2022/12/10 09:37:30;;;;;;;49.70;29.87;;;;;;;3.41;90.43;99443.31;2886467;81;21605;-87
2022/12/10 09:41:37;;;;;;;46.63;31.52;;;;;;;3.43;90.06;99437.48;2863936;81;21066;-90
2022/12/10 09:45:53;;;;;;;48.33;29.32;;;;;;;3.45;89.39;99448.73;2801031;82;21012;-89
2022/12/10 09:50:19;;;;;;;48.08;29.35;;;;;;;3.43;89.54;99442.25;2793575;82;21043;-91
2022/12/10 09:54:41;;;;;;;47.17;26.85;;;;;;;3.47;89.65;99438.96;2859354;81;21578;-89
2022/12/10 09:58:42;;;;;;;52.62;31.30;;;;;;;3.41;89.26;99421.80;2856203;81;21035;-90
2022/12/10 10:02:44;;;;;;;46.30;28.40;;;;;;;3.42;89.11;99431.86;2855627;81;20989;-89
2022/12/10 10:06:45;;;;;;;53.10;32.17;;;;;;;3.40;89.39;99420.60;2841911;81;21953;-88
2022/12/10 10:10:47;;;;;;;48.17;29.30;;;;;;;3.45;89.94;99417.19;2802603;82;21059;-89
2022/12/10 10:14:48;;;;;;;52.70;30.82;;;;;;;3.43;89.21;99404.62;2798317;82;21669;-88
2022/12/10 10:19:01;;;;;;;45.40;31.42;;;;;;;3.41;89.53;99403.88;2822066;82;21002;-88
2022/12/10 10:23:03;;;;;;;57.48;32.60;;;;;;;3.42;89.69;99400.30;2850373;82;21091;-88
2022/12/10 10:27:18;;;;;;;64.90;34.88;;;;;;;3.40;89.64;99410.09;2852193;82;21074;-87
2022/12/10 10:31:28;;;;;;;51.42;32.23;;;;;;;3.40;89.80;99396.94;2827611;82;21035;-88
2022/12/10 10:35:34;;;;;;;58.73;32.65;;;;;;;3.33;90.08;99403.07;2836579;82;21110;-88
2022/12/10 10:39:38;;;;;;;57.45;34.90;;;;;;;3.33;89.79;99399.58;2849923;81;21082;-87
2022/12/10 10:43:47;;;;;;;48.02;31.62;;;;;;;3.28;89.36;99399.91;2839448;82;20992;-86
2022/12/10 10:47:54;;;;;;;53.75;36.08;;;;;;;3.23;90.56;99393.63;2859034;80;20969;-88
2022/12/10 10:52:15;;;;;;;63.28;37.65;;;;;;;3.18;89.79;99394.41;2841719;80;21649;-88
2022/12/10 10:56:26;;;;;;;62.70;38.75;;;;;;;3.24;90.12;99403.20;2828140;82;21027;-85
2022/12/10 11:00:27;;;;;;;58.25;34.55;;;;;;;3.31;90.71;99401.02;2817955;82;21045;-89
2022/12/10 11:04:36;;;;;;;70.25;41.92;;;;;;;3.33;89.80;99393.02;2817273;84;21563;-86
2022/12/10 11:08:42;;;;;;;51.40;34.33;;;;;;;3.32;90.56;99399.22;2802550;84;21058;-88
2022/12/10 11:12:47;;;;;;;63.38;39.33;;;;;;;3.35;90.44;99402.49;2807118;82;21058;-89
2022/12/10 11:16:48;;;;;;;66.67;37.38;;;;;;;3.38;90.25;99405.41;2840728;82;21381;-85
2022/12/10 11:21:04;;;;;;;56.35;37.23;;;;;;;3.39;89.73;99396.08;2818371;82;21099;-90
2022/12/10 11:25:09;;;;;;;58.75;36.33;;;;;;;3.38;89.41;99389.63;2824370;83;21070;-91
2022/12/10 11:29:54;;;;;;;60.70;38.20;;;;;;;3.30;89.60;99400.65;2801905;83;21551;-92
2022/12/10 11:34:16;;;;;;;55.75;38.05;;;;;;;3.22;89.90;99394.58;2824266;82;21743;-91
2022/12/10 11:38:29;;;;;;;58.52;35.17;;;;;;;3.17;91.26;99395.36;2828973;82;21023;-88
2022/12/10 11:43:04;;;;;;;58.92;36.83;;;;;;;3.15;90.61;99402.50;2824836;82;21054;-89
2022/12/10 11:47:28;;;;;;;61.63;34.53;;;;;;;3.16;90.39;99408.59;2837649;82;21074;-89
2022/12/10 11:51:47;;;;;;;66.25;35.05;;;;;;;3.14;90.93;99396.84;2806226;82;22339;-92
2022/12/10 11:56:13;;;;;;;58.00;36.68;;;;;;;3.12;90.67;99398.28;2792209;83;21038;-90
2022/12/10 12:00:22;;;;;;;53.83;35.73;;;;;;;3.11;90.84;99409.73;2845845;83;20991;-91
2022/12/10 12:04:51;;;;;;;61.60;38.95;;;;;;;3.17;91.11;99412.44;2842276;83;21428;-90
2022/12/10 12:09:01;;;;;;;75.67;42.43;;;;;;;3.14;91.75;99402.10;2771298;83;21069;-85
2022/12/10 12:13:10;;;;;;;64.85;39.58;;;;;;;3.16;91.64;99413.84;2780598;84;21585;-88
2022/12/10 12:17:32;;;;;;;70.47;40.15;;;;;;;3.10;91.71;99413.77;2786299;84;21138;-90
2022/12/10 12:21:35;;;;;;;60.33;35.95;;;;;;;3.05;91.59;99407.52;2763422;84;21086;-90
2022/12/10 12:25:41;;;;;;;66.60;37.58;;;;;;;3.00;91.85;99406.48;2761465;84;21016;-87
2022/12/10 12:30:00;;;;;;;59.95;36.35;;;;;;;2.98;92.40;99404.44;2762677;84;21058;-93
2022/12/10 12:34:34;;;;;;;66.15;42.88;;;;;;;2.92;92.96;99406.61;2762335;85;21646;-92
2022/12/10 12:38:53;;;;;;;71.25;38.70;;;;;;;2.90;93.77;99412.44;2780595;84;21103;-90
2022/12/10 12:43:02;;;;;;;70.45;40.05;;;;;;;2.88;93.37;99402.02;2761208;84;20985;-92
2022/12/10 12:47:18;;;;;;;66.28;36.80;;;;;;;2.91;94.52;99404.44;2814781;83;21059;-90
2022/12/10 12:51:27;;;;;;;74.17;39.33;;;;;;;2.84;94.59;99400.53;2823478;82;21634;-92
2022/12/10 12:56:08;;;;;;;58.30;35.43;;;;;;;2.79;94.98;99399.50;2823153;82;21061;-89
2022/12/10 13:00:21;;;;;;;72.17;40.55;;;;;;;2.77;95.23;99407.13;2819012;82;21082;-87
2022/12/10 13:04:23;;;;;;;73.00;41.73;;;;;;;2.73;94.67;99405.61;2811543;82;21532;-88
2022/12/10 13:08:29;;;;;;;75.05;43.68;;;;;;;2.68;95.72;99401.50;2819902;82;21557;-88
2022/12/10 13:12:52;;;;;;;66.70;42.98;;;;;;;2.64;96.19;99400.47;2864597;81;21573;-89
2022/12/10 13:17:08;;;;;;;69.37;37.08;;;;;;;2.63;95.81;99392.22;2866532;81;20994;-94
2022/12/10 13:21:28;;;;;;;76.90;41.83;;;;;;;2.65;96.15;99395.13;2881000;81;21184;-88
2022/12/10 13:25:43;;;;;;;73.45;43.60;;;;;;;2.62;95.95;99390.08;2862278;81;21051;-89
2022/12/10 13:30:25;;;;;;;76.12;43.15;;;;;;;2.60;96.69;99386.71;2737865;85;21611;-92
2022/12/10 13:34:36;;;;;;;77.53;43.35;;;;;;;2.59;96.18;99394.67;2769818;83;21066;-94
2022/12/10 13:38:46;;;;;;;80.42;48.33;;;;;;;2.60;96.74;99398.98;2851115;81;21061;-91
2022/12/10 13:47:32;;;;;;;77.80;46.40;;;;;;;2.52;97.12;99404.25;2814545;81;21594;-96
2022/12/10 13:51:54;;;;;;;88.80;45.58;;;;;;;2.48;97.14;99397.52;2830881;82;21303;-93
2022/12/10 13:56:16;;;;;;;82.70;45.58;;;;;;;2.49;97.12;99408.39;2875421;81;21077;-93
2022/12/10 14:00:22;;;;;;;83.42;47.45;;;;;;;2.54;96.64;99422.52;2855511;81;21056;-92
2022/12/10 14:04:47;;;;;;;70.65;42.55;;;;;;;2.57;96.58;99425.81;2854843;82;21023;-93
2022/12/10 14:09:25;;;;;;;77.55;44.45;;;;;;;2.64;96.41;99429.35;2820263;81;21039;-92
2022/12/10 14:13:42;;;;;;;65.00;40.65;;;;;;;2.70;96.50;99437.69;2794032;83;21090;-91
2022/12/10 14:17:46;;;;;;;77.62;44.58;;;;;;;2.78;96.19;99429.34;2808808;83;21510;-93
2022/12/10 14:21:47;;;;;;;90.72;50.28;;;;;;;2.78;95.55;99429.34;2748128;85;21078;-93
2022/12/10 14:25:51;;;;;;;83.33;43.95;;;;;;;2.83;95.69;99430.37;2773172;85;21055;-96
2022/12/10 14:30:03;;;;;;;80.92;45.48;;;;;;;2.81;94.95;99433.56;2803726;83;21070;-94
2022/12/10 14:34:08;;;;;;;78.12;42.13;;;;;;;2.87;94.79;99439.73;2794193;82;21138;-94
2022/12/10 14:38:15;;;;;;;75.67;42.88;;;;;;;2.88;94.85;99437.48;2822674;83;21562;-91
2022/12/10 14:42:17;;;;;;;78.17;45.08;;;;;;;2.91;94.85;99440.39;2797468;82;21043;-93
2022/12/10 14:46:25;;;;;;;75.22;44.18;;;;;;;2.88;94.14;99440.59;2765864;83;21070;-91
2022/12/10 14:50:29;;;;;;;93.17;46.18;;;;;;;2.92;94.67;99458.66;2763090;84;21023;-94
2022/12/10 14:54:35;;;;;;;78.12;46.02;;;;;;;2.95;94.16;99455.87;2762983;84;21098;-89
2022/12/10 14:58:41;;;;;;;83.55;46.75;;;;;;;3.01;94.24;99451.98;2789328;83;21010;-95
2022/12/10 15:03:00;;;;;;;75.03;45.40;;;;;;;3.01;94.33;99454.61;2789636;85;21058;-94
2022/12/10 15:07:02;;;;;;;87.92;48.10;;;;;;;3.03;93.77;99459.78;2750258;84;21194;-94
2022/12/10 15:11:04;;;;;;;71.47;42.10;;;;;;;3.05;93.70;99465.32;2848810;80;21067;-94
2022/12/10 15:15:11;;;;;;;77.20;45.03;;;;;;;3.09;94.19;99471.20;2784461;82;21105;-89
2022/12/10 15:19:27;;;;;;;82.02;47.62;;;;;;;3.14;94.07;99471.75;2834885;81;21070;-88
2022/12/10 15:23:33;;;;;;;77.45;44.83;;;;;;;3.18;93.59;99475.89;2857934;81;21700;-92
2022/12/10 15:27:34;;;;;;;78.65;47.53;;;;;;;3.20;93.45;99475.31;2841960;81;21793;-92
2022/12/10 15:31:36;;;;;;;72.78;42.40;;;;;;;3.23;92.81;99479.06;2854446;81;21050;-93
2022/12/10 15:35:38;;;;;;;74.10;43.15;;;;;;;3.20;93.32;99467.43;2854356;81;21105;-94
2022/12/10 15:40:03;;;;;;;81.40;42.50;;;;;;;3.21;93.02;99463.86;2851283;82;21006;-95
2022/12/10 15:44:18;;;;;;;81.45;48.75;;;;;;;3.15;93.17;99465.58;2715075;86;21435;-92
2022/12/10 15:48:21;;;;;;;85.53;48.45;;;;;;;3.20;93.51;99475.77;2733738;86;21102;-89
2022/12/10 15:52:28;;;;;;;91.67;59.80;;;;;;;3.22;93.29;99473.43;2737746;86;20983;-93
2022/12/10 15:56:29;;;;;;;87.17;50.28;;;;;;;3.24;93.25;99476.80;2748226;85;21522;-92
2022/12/10 16:00:31;;;;;;;77.15;47.60;;;;;;;3.29;93.52;99478.66;2740679;86;20995;-91
2022/12/10 16:04:32;;;;;;;80.40;48.85;;;;;;;3.37;93.43;99486.53;2738853;86;21054;-92
2022/12/10 16:08:34;;;;;;;75.42;43.38;;;;;;;3.43;92.78;99483.50;2708972;86;21066;-90
2022/12/10 16:12:38;;;;;;;72.30;41.60;;;;;;;3.44;92.94;99485.18;2734456;86;21038;-89
2022/12/10 16:16:41;;;;;;;73.72;43.58;;;;;;;3.41;92.37;99487.53;2720502;86;21074;-87
2022/12/10 16:20:42;;;;;;;70.62;45.12;;;;;;;3.38;92.44;99483.78;2710665;86;21111;-90
2022/12/10 16:24:43;;;;;;;83.05;48.33;;;;;;;3.41;92.97;99482.76;2712983;86;21098;-90
2022/12/10 16:28:46;;;;;;;75.08;43.23;;;;;;;3.41;93.29;99484.07;2717538;86;22537;-90
2022/12/10 16:32:48;;;;;;;76.15;46.68;;;;;;;3.38;93.41;99481.16;2717917;86;23383;-91
2022/12/10 16:36:50;;;;;;;73.00;44.98;;;;;;;3.40;93.30;99478.45;2703514;86;21682;-89
2022/12/10 16:40:51;;;;;;;64.35;38.17;;;;;;;3.37;93.45;99477.33;2695662;88;21056;-90
2022/12/10 16:44:52;;;;;;;74.42;42.78;;;;;;;3.31;93.38;99477.70;2658968;87;21088;-92
2022/12/10 16:48:54;;;;;;;72.32;40.50;;;;;;;3.22;93.50;99474.74;2663573;88;21088;-90
2022/12/10 16:52:56;;;;;;;77.10;44.40;;;;;;;3.13;94.04;99456.92;2655680;87;21080;-88
2022/12/10 16:56:57;;;;;;;75.15;44.95;;;;;;;3.14;94.40;99461.23;2668588;88;21057;-90
2022/12/10 17:01:00;;;;;;;73.95;45.67;;;;;;;3.10;94.25;99457.12;2650950;88;21473;-90
2022/12/10 17:05:02;;;;;;;68.78;43.08;;;;;;;3.07;94.87;99459.95;2606048;88;21513;-91
2022/12/10 17:09:04;;;;;;;67.50;42.78;;;;;;;3.06;95.21;99472.72;2662107;88;21073;-90
2022/12/10 17:13:05;;;;;;;66.33;41.15;;;;;;;3.04;95.21;99468.86;2663003;88;21651;-88
2022/12/10 17:17:09;;;;;;;71.65;41.55;;;;;;;3.04;94.65;99474.12;2644250;88;21048;-90
2022/12/10 17:21:10;;;;;;;66.30;38.80;;;;;;;3.03;94.79;99480.80;2624225;88;21032;-90
2022/12/10 17:25:11;;;;;;;71.05;39.38;;;;;;;3.00;95.17;99484.00;2651654;88;21119;-89
2022/12/10 17:29:33;;;;;;;60.15;37.67;;;;;;;2.96;94.96;99478.58;2640969;88;21087;-90
2022/12/10 17:33:34;;;;;;;58.92;41.45;;;;;;;2.96;95.05;99487.77;2649692;88;21008;-89
2022/12/10 17:37:37;;;;;;;70.70;40.60;;;;;;;2.95;95.10;99486.08;2575777;87;21056;-89
2022/12/10 17:41:38;;;;;;;70.70;41.23;;;;;;;2.98;95.24;99493.77;2658979;88;21089;-90
2022/12/10 17:45:41;;;;;;;82.22;46.18;;;;;;;2.97;95.20;99493.84;2654607;88;21570;-90
2022/12/10 17:49:42;;;;;;;93.87;52.60;;;;;;;2.99;95.47;99499.39;2681166;87;21506;-91
2022/12/10 17:53:43;;;;;;;89.40;50.58;;;;;;;2.94;95.38;99492.25;2688512;87;21023;-90
2022/12/10 17:57:45;;;;;;;80.15;47.00;;;;;;;2.95;95.92;99501.84;2687871;87;21050;-91
2022/12/10 18:01:46;;;;;;;85.65;48.98;;;;;;;2.93;96.03;99497.13;2690291;87;21495;-92
2022/12/10 18:05:48;;;;;;;81.67;48.38;;;;;;;2.85;96.13;99495.02;2713821;87;21586;-93
2022/12/10 18:09:49;;;;;;;79.12;48.10;;;;;;;2.80;96.59;99494.92;2686734;86;21039;-90
2022/12/10 18:13:50;;;;;;;89.95;50.10;;;;;;;2.79;96.78;99498.48;2698807;86;21066;-90
2022/12/10 18:17:52;;;;;;;69.97;44.50;;;;;;;2.78;96.98;99496.31;2725883;86;21563;-92
2022/12/10 18:21:54;;;;;;;70.75;44.35;;;;;;;2.78;96.56;99502.88;2649373;88;21062;-94
2022/12/10 18:25:56;;;;;;;73.87;43.85;;;;;;;2.79;96.71;99494.06;2656535;86;21034;-94
2022/12/10 18:29:57;;;;;;;72.03;45.63;;;;;;;2.75;96.83;99500.45;2660641;87;21042;-92
2022/12/10 18:34:06;;;;;;;82.22;47.35;;;;;;;2.77;96.50;99502.99;2686184;87;21041;-93
2022/12/10 18:38:14;;;;;;;71.00;42.17;;;;;;;2.78;95.96;99507.30;2660198;87;21086;-92
2022/12/10 18:42:17;;;;;;;74.77;43.28;;;;;;;2.83;96.42;99502.60;2689193;87;21066;-94
2022/12/10 18:46:27;;;;;;;63.13;42.15;;;;;;;2.77;96.35;99499.05;2693972;87;21084;-93
2022/12/10 18:50:30;;;;;;;69.97;40.88;;;;;;;2.77;96.58;99493.80;2641766;86;21080;-95
2022/12/10 18:54:31;;;;;;;83.33;44.08;;;;;;;2.75;97.01;99494.34;2699896;86;21070;-92
2022/12/10 18:58:33;;;;;;;72.32;42.17;;;;;;;2.75;97.11;99487.31;2692330;86;21092;-93
2022/12/10 19:02:34;;;;;;;66.92;43.45;;;;;;;2.79;97.65;99494.55;2698089;86;20997;-94
2022/12/10 19:06:37;;;;;;;72.62;38.53;;;;;;;2.79;97.23;99491.44;2703952;86;21129;-89
2022/12/10 19:10:38;;;;;;;78.55;49.67;;;;;;;2.78;97.47;99492.38;2708507;86;21092;-89
2022/12/10 19:14:39;;;;;;;73.60;45.10;;;;;;;2.82;97.50;99486.47;2702154;86;21079;-90
2022/12/10 19:18:41;;;;;;;80.50;45.73;;;;;;;2.81;97.28;99500.55;2689247;86;21088;-90
2022/12/10 19:22:44;;;;;;;72.78;47.10;;;;;;;2.83;97.45;99499.98;2703923;86;21070;-87